Latest Weather Observations for Broome

IDW60801

Issued at 11:35 pm WST Friday 19 September 2014 (issued every 30 minutes, with the page automatically refreshed every 10 minutes)

About weather observations | Map of weather stations | Latest weather observations for WA | Other Formats
Station Details ID: 003003 Name: BROOME AIRPORT Lat: -17.95 Lon: 122.24 Height: 7.42 m
Data from the previous 72 hours. | See also: Recent months at Broome
Date/Time
WST
Temp
°C
App
Temp
°C
Dew
Point
Rel
Hum
%
Delta-T
°C
Wind Press
QNH
hPa
Press
MSL
hPa
Rain
since 9 am
mm
Dir
 
Spd
km/h
Gust
km/h
Spd
kts
Gust
kts
19/11:30pm 24.5 27.7 23.0 91 1.0 WNW 11 13 6 7 1014.5 - 0.0
19/11:00pm 24.8 27.9 22.9 89 1.3 WNW 11 15 6 8 1014.7 - 0.0
19/10:30pm 24.8 28.4 23.0 90 1.2 NW 9 13 5 7 1015.0 - 0.0
19/10:00pm 25.0 27.7 22.9 88 1.4 WNW 13 15 7 8 1014.8 - 0.0
19/09:30pm 25.2 28.3 22.8 86 1.6 WNW 11 15 6 8 1015.0 - 0.0
19/09:00pm 25.3 27.8 22.5 84 1.9 NW 13 19 7 10 1015.0 1014.9 0.0
19/08:30pm 25.3 27.7 22.3 83 2.0 NW 13 17 7 9 1014.9 - 0.0
19/08:00pm 25.5 27.6 22.4 83 2.1 NW 15 20 8 11 1014.6 - 0.0
19/07:30pm 25.5 27.9 22.2 82 2.2 NW 13 17 7 9 1014.4 - 0.0
19/07:00pm 25.6 28.2 22.0 80 2.4 NW 11 15 6 8 1013.9 - 0.0
19/06:30pm 26.0 28.2 21.8 77 2.8 WNW 13 19 7 10 1013.6 - 0.0
19/06:00pm 26.3 28.2 21.3 74 3.3 W 13 20 7 11 1013.0 1012.9 0.0
19/05:30pm 27.1 27.5 20.7 68 4.2 W 19 26 10 14 1012.4 - 0.0
19/05:00pm 28.2 27.6 19.8 60 5.5 W 22 30 12 16 1012.2 - 0.0
19/04:30pm 29.0 27.9 18.6 53 6.7 W 22 30 12 16 1012.0 - 0.0
19/04:00pm 29.3 27.8 17.8 50 7.3 W 22 32 12 17 1011.8 - 0.0
19/03:30pm 29.5 27.8 17.1 47 7.8 W 22 32 12 17 1011.8 - 0.0
19/03:00pm 30.2 28.7 16.7 44 8.5 W 20 32 11 17 1012.1 1012.0 0.0
19/02:30pm 31.2 29.0 14.9 37 10.0 W 20 26 11 14 1012.3 - 0.0
19/02:00pm 32.2 29.8 12.5 30 11.7 WSW 17 26 9 14 1012.6 - 0.0
19/01:30pm 32.4 30.0 14.4 33 11.0 W 20 24 11 13 1013.0 - 0.0
19/01:00pm 31.5 30.3 16.2 39 9.6 W 17 22 9 12 1013.5 - 0.0
19/12:30pm 31.5 31.5 18.1 44 8.6 W 15 20 8 11 1013.9 - 0.0
19/12:00pm 30.4 30.8 19.0 50 7.4 W 15 20 8 11 1014.3 1014.2 0.0
19/11:30am 29.7 30.0 19.6 54 6.6 W 17 22 9 12 1014.7 - 0.0
19/11:00am 29.9 30.6 19.7 54 6.7 W 15 20 8 11 1015.2 - 0.0
19/10:30am 30.3 31.5 20.0 54 6.8 W 13 19 7 10 1015.6 - 0.0
19/10:00am 30.3 32.2 19.8 53 6.9 SSW 9 15 5 8 1015.7 - 0.0
19/09:30am 29.4 30.2 18.1 50 7.2 SSW 11 19 6 10 1015.9 - 0.0
19/09:00am 29.1 28.6 17.0 48 7.6 SW 15 22 8 12 1016.0 1015.9 0.0
19/08:30am 28.3 27.7 17.5 52 6.8 SW 17 22 9 12 1015.9 - 0.0
19/08:00am 27.5 27.9 19.1 60 5.4 SW 15 24 8 13 1016.0 - 0.0
19/07:30am 26.3 26.4 20.0 68 4.1 SW 19 26 10 14 1015.6 - 0.0
19/07:00am 24.7 27.1 21.5 82 2.1 SW 11 17 6 9 1015.2 - 0.0
19/06:30am 19.8 23.0 18.8 94 0.6 CALM 0 0 0 0 1014.9 - 0.0
19/06:00am 18.7 21.5 18.0 96 0.4 NW 0 0 0 0 1014.5 1014.4 0.0
19/05:30am 19.8 23.0 18.8 94 0.6 CALM 0 6 0 3 1013.9 - 0.0
19/05:00am 22.8 25.5 21.4 92 0.9 W 9 11 5 6 1013.5 - 0.0
19/04:30am 22.5 24.4 21.3 93 0.8 WSW 13 17 7 9 1013.2 - 0.0
19/04:00am 18.3 20.9 17.6 96 0.4 CALM 0 0 0 0 1013.6 - 0.0
19/03:30am 19.6 22.9 19.0 96 0.4 CALM 0 0 0 0 1013.4 - 0.0
19/03:00am 19.8 23.1 19.2 96 0.4 CALM 0 0 0 0 1013.4 1013.3 0.0
19/02:30am 19.8 23.2 19.3 97 0.3 CALM 0 0 0 0 1013.5 - 0.0
19/02:00am 19.8 23.1 19.2 96 0.4 CALM 0 0 0 0 1013.6 - 0.0
19/01:30am 20.8 24.5 20.0 95 0.5 CALM 0 0 0 0 1013.9 - 0.0
19/01:00am 20.4 21.9 19.8 96 0.4 ENE 11 13 6 7 1014.3 - 0.0
19/12:30am 21.4 23.6 20.5 95 0.6 NW 9 13 5 7 1014.2 - 0.0
19/12:00am 20.2 22.6 19.7 97 0.3 N 6 7 3 4 1014.7 1014.6 0.0
 
Date/Time
WST
Temp
°C
App
Temp
°C
Dew
Point
Rel
Hum
%
Delta-T
°C
Wind Press
QNH
hPa
Press
MSL
hPa
Rain
since 9 am
mm
Dir
 
Spd
km/h
Gust
km/h
Spd
kts
Gust
kts
18/11:30pm 21.1 23.6 20.2 95 0.6 N 7 9 4 5 1015.0 - 0.0
18/11:00pm 22.2 26.3 20.7 91 1.0 CALM 0 0 0 0 1015.3 - 0.0
18/10:30pm 24.0 27.0 21.3 85 1.8 W 7 11 4 6 1015.3 - 0.0
18/10:00pm 23.7 27.3 21.3 86 1.6 WNW 4 7 2 4 1015.4 - 0.0
18/09:30pm 24.4 26.9 21.7 85 1.8 W 11 15 6 8 1015.5 - 0.0
18/09:00pm 24.6 27.0 22.2 86 1.6 W 13 19 7 10 1015.3 1015.2 0.0
18/08:30pm 24.8 27.0 22.6 87 1.5 W 15 22 8 12 1015.2 - 0.0
18/08:00pm 24.9 27.4 22.5 86 1.6 W 13 17 7 9 1015.3 - 0.0
18/07:30pm 25.0 27.5 22.5 86 1.7 W 13 19 7 10 1015.1 - 0.0
18/07:00pm 25.1 27.6 22.4 85 1.8 W 13 19 7 10 1014.8 - 0.0
18/06:30pm 25.3 27.3 22.2 83 2.1 W 15 20 8 11 1014.4 - 0.0
18/06:00pm 25.5 27.1 22.1 81 2.3 W 17 24 9 13 1014.0 1013.9 0.0
18/05:30pm 25.9 27.0 22.0 79 2.6 W 19 24 10 13 1013.6 - 0.0
18/05:00pm 26.4 27.2 21.3 73 3.4 W 19 24 10 13 1013.2 - 0.0
18/04:30pm 26.8 27.2 20.9 70 3.9 W 20 24 11 13 1013.1 - 0.0
18/04:00pm 27.4 28.1 20.4 65 4.6 W 17 22 9 12 1013.1 - 0.0
18/03:30pm 27.7 28.5 20.6 65 4.7 W 17 24 9 13 1012.9 - 0.0
18/03:00pm 28.5 29.3 21.3 65 4.8 W 19 26 10 14 1013.1 1013.0 0.0
18/02:30pm 28.1 29.1 21.7 68 4.3 W 19 26 10 14 1013.3 - 0.0
18/02:00pm 28.8 29.2 20.6 61 5.4 W 19 22 10 12 1013.3 - 0.0
18/01:30pm 29.5 29.7 19.4 54 6.6 WSW 17 22 9 12 1013.7 - 0.0
18/01:00pm 29.1 29.5 19.8 57 6.1 W 17 24 9 13 1014.1 - 0.0
18/12:30pm 29.4 29.6 19.4 55 6.5 W 17 22 9 12 1014.5 - 0.0
18/12:00pm 29.0 28.9 19.5 56 6.2 W 19 22 10 12 1014.9 1014.8 0.0
18/11:30am 29.3 29.9 20.2 58 6.0 WNW 17 24 9 13 1015.3 - 0.0
18/11:00am 28.3 29.4 20.4 62 5.2 W 15 20 8 11 1015.9 - 0.0
18/10:30am 28.1 29.1 20.2 62 5.2 WNW 15 22 8 12 1016.4 - 0.0
18/10:00am 27.5 28.6 21.3 69 4.1 WNW 17 24 9 13 1016.6 - 0.0
18/09:30am 27.3 28.6 20.9 68 4.2 NW 15 24 8 13 1016.8 - 0.0
18/09:00am 26.8 28.6 21.2 71 3.7 WNW 13 17 7 9 1016.9 1016.8 0.2
18/08:30am 25.9 28.6 21.4 76 3.0 WNW 9 15 5 8 1016.9 - 0.2
18/08:06am 24.6 28.4 22.4 87 1.5 ESE 6 9 3 5 1016.8 - 0.2
18/08:00am 23.9 27.5 22.1 90 1.2 ESE 6 9 3 5 1016.7 - 0.2
18/07:57am 24.0 28.6 22.4 91 1.1 ENE 2 7 1 4 1016.6 - 0.2
18/07:30am 21.8 24.8 21.3 97 0.3 NNE 7 9 4 5 1016.4 - 0.2
18/07:04am 20.9 25.0 20.7 99 0.1 CALM 0 0 0 0 1016.1 - 0.2
18/07:00am 20.9 24.9 20.6 98 0.2 CALM 0 - 0 - 1016.0 - 0.2
18/06:30am 21.1 23.9 20.8 98 0.2 NE 7 11 4 6 1015.7 - 0.0
18/06:09am 20.2 22.7 19.9 98 0.2 ENE 6 9 3 5 1015.4 - 0.0
18/06:00am 21.3 24.8 21.1 99 0.1 WNW 4 9 2 5 1015.2 1015.1 0.0
18/05:58am 21.4 25.3 21.2 99 0.1 W 2 9 1 5 1015.2 - 0.0
18/05:30am 21.8 24.6 21.5 98 0.2 SSW 9 11 5 6 1014.7 - 0.0
18/05:07am 19.9 22.0 19.4 97 0.3 WSW 7 9 4 5 1014.6 - 0.0
18/05:00am 19.4 21.6 19.2 99 0.1 W 6 9 3 5 1014.4 - 0.0
18/04:52am 19.0 21.8 18.8 99 0.1 NNW 2 7 1 4 1014.3 - 0.0
18/04:38am 18.7 21.7 18.5 99 0.1 CALM 0 6 0 3 1014.2 - 0.0
18/04:30am 19.1 22.4 19.1 100 0.0 CALM 0 - 0 - 1014.2 - 0.0
18/04:21am 18.9 22.0 18.7 99 0.1 CALM 0 - 0 - 1014.2 - 0.0
18/04:15am 18.7 21.7 18.4 98 0.2 CALM 0 - 0 - 1014.1 - 0.0
18/04:08am 19.5 22.9 19.3 99 0.1 CALM 0 - 0 - 1014.0 - 0.0
18/04:00am 19.6 21.8 19.3 98 0.2 ENE 6 11 3 6 1013.9 - 0.0
18/03:49am 19.5 22.6 19.5 100 0.0 ENE 2 13 1 7 1014.0 - 0.0
18/03:48am 19.9 23.4 19.6 98 0.2 CALM 0 11 0 6 1013.9 - 0.0
18/03:34am 20.4 22.9 19.9 97 0.3 E 6 9 3 5 1014.0 - 0.0
18/03:30am 20.3 23.1 19.7 96 0.4 NNW 4 9 2 5 1014.0 - 0.0
18/03:25am 21.2 25.4 21.0 99 0.1 CALM 0 - 0 - 1014.0 - 0.0
18/03:24am 21.8 26.3 21.5 98 0.2 CALM 0 - 0 - 1014.0 - 0.0
18/03:03am 21.9 26.1 21.7 99 0.1 WNW 2 6 1 3 1013.8 - 0.0
18/03:00am 22.2 26.4 21.7 97 0.3 WNW 2 7 1 4 1013.9 1013.8 0.0
18/02:56am 22.1 25.6 21.9 99 0.1 WNW 6 7 3 4 1013.9 - 0.0
18/02:30am 23.1 27.0 22.5 96 0.4 WSW 6 9 3 5 1014.0 - 0.0
18/02:00am 23.4 26.8 22.7 96 0.5 W 9 13 5 7 1013.9 - 0.0
18/01:30am 23.5 26.1 22.6 95 0.6 W 13 15 7 8 1014.0 - 0.0
18/01:00am 23.6 26.7 22.9 96 0.5 W 11 17 6 9 1014.3 - 0.0
18/12:30am 21.8 25.0 21.3 97 0.3 W 6 13 3 7 1014.4 - 0.0
18/12:11am 22.2 25.2 21.9 98 0.2 WNW 9 15 5 8 1014.5 - 0.0
18/12:00am 21.1 24.0 20.6 97 0.3 ENE 6 13 3 7 1014.6 1014.5 0.0
 
Date/Time
WST
Temp
°C
App
Temp
°C
Dew
Point
Rel
Hum
%
Delta-T
°C
Wind Press
QNH
hPa
Press
MSL
hPa
Rain
since 9 am
mm
Dir
 
Spd
km/h
Gust
km/h
Spd
kts
Gust
kts
17/11:59pm 21.1 23.8 20.6 97 0.3 E 7 13 4 7 1014.6 - 0.0
17/11:30pm 20.8 23.3 20.2 96 0.4 NE 7 11 4 6 1014.8 - 0.0
17/11:00pm 23.0 26.7 22.6 98 0.3 WNW 7 11 4 6 1014.9 - 0.0
17/10:30pm 22.7 26.2 22.2 97 0.3 NW 7 11 4 6 1015.1 - 0.0
17/10:00pm 22.4 27.0 21.8 96 0.4 CALM 0 0 0 0 1015.3 - 0.0
17/09:30pm 23.0 27.1 22.2 95 0.5 NNW 4 7 2 4 1015.3 - 0.0
17/09:00pm 23.9 27.8 23.0 95 0.6 NNW 7 9 4 5 1015.1 1015.0 0.0
17/08:30pm 24.3 27.2 23.1 93 0.8 WNW 13 15 7 8 1014.6 - 0.0
17/08:00pm 24.6 27.5 23.1 91 1.0 W 13 19 7 10 1014.4 - 0.0
17/07:30pm 24.7 27.9 23.1 91 1.1 WNW 11 17 6 9 1014.0 - 0.0
17/07:00pm 24.8 27.6 23.0 90 1.2 WNW 13 19 7 10 1013.5 - 0.0
17/06:30pm 24.9 27.7 23.0 89 1.3 WNW 13 17 7 9 1013.2 - 0.0
17/06:00pm 25.1 27.5 22.9 87 1.5 W 15 20 8 11 1012.9 1012.8 0.0
17/05:30pm 25.6 27.4 22.6 83 2.0 WNW 17 24 9 13 1012.7 - 0.0
17/05:00pm 26.2 27.4 22.5 80 2.5 WNW 20 28 11 15 1012.3 - 0.0
17/04:30pm 26.5 27.6 22.0 76 3.0 W 19 26 10 14 1012.2 - 0.0
17/04:00pm 27.3 28.1 21.8 72 3.7 W 20 28 11 15 1012.0 - 0.0
17/03:30pm 27.7 28.2 21.1 67 4.4 WNW 20 30 11 16 1012.0 - 0.0
17/03:00pm 27.1 27.1 21.7 72 3.6 W 24 33 13 18 1012.2 1012.1 0.0
17/02:30pm 27.5 28.1 21.3 69 4.1 WNW 20 28 11 15 1012.3 - 0.0
17/02:00pm 27.8 27.9 21.2 67 4.4 WNW 22 30 12 16 1012.5 - 0.0
17/01:30pm 28.2 28.6 21.0 65 4.8 WNW 20 28 11 15 1012.8 - 0.0
17/01:00pm 28.6 29.2 21.1 64 5.0 WNW 19 28 10 15 1013.3 - 0.0
17/12:30pm 28.2 28.8 21.0 65 4.8 WNW 19 26 10 14 1013.6 - 0.0
17/12:00pm 28.3 28.4 20.4 62 5.2 NW 20 26 11 14 1014.0 1013.9 0.0
17/11:30am 27.6 28.2 20.3 64 4.8 W 17 24 9 13 1014.3 - 0.0
17/11:00am 28.0 28.7 20.4 63 5.0 W 17 22 9 12 1014.6 - 0.0
17/10:30am 27.7 28.9 20.6 65 4.7 W 15 20 8 11 1015.0 - 0.0
17/10:00am 27.1 29.3 21.1 69 4.0 SE 11 15 6 8 1015.2 - 0.0
17/09:30am 26.8 28.3 21.2 71 3.7 SE 15 22 8 12 1015.4 - 0.0
17/09:18am 27.7 30.8 21.4 68 4.2 E 7 15 4 8 1015.5 - 0.0
17/09:00am 26.8 29.1 21.4 72 3.6 SE 11 15 6 8 1015.4 1015.3 0.2
17/08:30am 25.2 27.2 21.6 80 2.4 E 13 15 7 8 1015.2 - 0.2
17/08:00am 24.7 27.3 22.0 85 1.8 SSE 11 15 6 8 1014.5 - 0.0
17/07:30am 23.7 26.8 22.2 91 1.0 SSE 9 15 5 8 1014.1 - 0.0
17/07:00am 22.3 26.5 21.8 97 0.3 WSW 2 7 1 4 1013.8 - 0.0
17/06:58am 22.3 26.9 21.8 97 0.3 CALM 0 6 0 3 1013.7 - 0.0
17/06:30am 20.8 24.6 20.2 96 0.4 CALM 0 - 0 - 1013.3 - 0.0
17/06:00am 20.1 23.3 19.8 98 0.2 N 2 6 1 3 1013.0 1012.9 0.0
17/05:30am 20.0 22.5 19.8 99 0.1 N 6 7 3 4 1012.5 - 0.0
17/05:17am 20.1 21.6 19.8 98 0.2 NE 11 11 6 6 1012.4 - 0.0
17/05:00am 20.2 22.2 19.9 98 0.2 NNE 9 11 5 6 1011.9 - 0.0
17/04:48am 21.5 25.7 21.0 97 0.3 CALM 0 0 0 0 1011.6 - 0.0
17/04:30am 22.2 25.4 21.6 96 0.4 SW 7 11 4 6 1011.3 - 0.0
17/04:00am 22.4 24.6 21.9 97 0.3 SSW 13 17 7 9 1011.0 - 0.0
17/03:30am 19.0 21.9 18.2 95 0.5 CALM 0 0 0 0 1011.3 - 0.0
17/03:00am 19.0 22.0 18.5 97 0.3 CALM 0 0 0 0 1011.4 1011.3 0.0
17/02:44am 19.1 22.3 18.8 98 0.2 CALM 0 0 0 0 1011.4 - 0.0
17/02:34am 19.5 22.8 19.0 97 0.3 CALM 0 0 0 0 1011.4 - 0.0
17/02:30am 19.4 22.7 19.1 98 0.2 CALM 0 0 0 0 1011.4 - 0.0
17/02:19am 19.4 22.7 19.2 99 0.1 CALM 0 7 0 4 1011.5 - 0.0
17/02:15am 19.8 22.6 19.6 99 0.1 W 4 9 2 5 1011.5 - 0.0
17/02:00am 19.9 22.7 19.7 99 0.1 N 4 9 2 5 1011.3 - 0.0
17/01:59am 19.8 22.9 19.6 99 0.1 NNE 2 9 1 5 1011.3 - 0.0
17/01:30am 19.7 23.2 19.5 99 0.1 CALM 0 6 0 3 1011.5 - 0.0
17/01:11am 19.2 21.6 18.7 97 0.3 E 4 9 2 5 1011.6 - 0.0
17/01:07am 19.6 21.7 19.0 96 0.4 ESE 6 7 3 4 1011.6 - 0.0
17/01:05am 19.5 22.0 19.0 97 0.3 ESE 4 7 2 4 1011.5 - 0.0
17/01:00am 19.6 22.9 19.1 97 0.3 CALM 0 7 0 4 1011.5 - 0.0
17/12:56am 19.9 23.4 19.6 98 0.2 CALM 0 - 0 - 1011.6 - 0.0
17/12:48am 20.3 24.1 20.1 99 0.1 CALM 0 - 0 - 1011.7 - 0.0
17/12:46am 20.4 24.2 20.2 99 0.1 CALM 0 - 0 - 1011.7 - 0.0
17/12:44am 21.1 25.1 20.6 97 0.3 CALM 0 0 0 0 1011.7 - 0.0
17/12:30am 20.6 24.4 20.1 97 0.3 CALM 0 0 0 0 1011.9 - 0.0
17/12:25am 21.1 24.9 20.9 99 0.1 ESE 2 6 1 3 1011.9 - 0.0
17/12:00am 22.4 26.4 22.1 98 0.2 NNW 4 7 2 4 1012.1 1012.0 0.0

Other Formats:

Comma delimited format used in spreadsheet applications
http://www.bom.gov.au/fwo/IDW60801/IDW60801.94203.axf

JavaScript Object Notation format (JSON) in row-major order
http://www.bom.gov.au/fwo/IDW60801/IDW60801.94203.json